createdAt,value
2019-03-02T00:00:12.811Z,10.00
2019-03-02T00:00:56.725Z,10.37
2019-03-02T00:01:33.500Z,9.90
2019-03-02T00:02:10.015Z,9.93
2019-03-02T00:02:45.571Z,10.20
2019-03-02T00:03:21.290Z,10.37
2019-03-02T00:03:56.923Z,10.17
2019-03-02T00:04:32.459Z,9.83
2019-03-02T00:05:08.026Z,10.03
2019-03-02T00:05:43.651Z,10.40
2019-03-02T00:06:19.332Z,10.43
2019-03-02T00:06:55.222Z,9.93
2019-03-02T00:07:30.780Z,10.23
2019-03-02T00:08:06.333Z,11.90
2019-03-02T00:08:41.899Z,12.13
2019-03-02T00:09:17.459Z,10.90
2019-03-02T00:09:53.007Z,12.27
2019-03-02T00:10:29.605Z,11.27
2019-03-02T00:11:05.450Z,11.23
2019-03-02T00:11:41.006Z,11.50
2019-03-02T00:12:16.569Z,11.00
2019-03-02T00:12:52.539Z,11.53
2019-03-02T00:13:28.114Z,11.67
2019-03-02T00:14:03.760Z,12.50
2019-03-02T00:14:39.679Z,12.80
2019-03-02T00:15:15.403Z,11.60
2019-03-02T00:15:50.943Z,11.80
2019-03-02T00:16:26.546Z,11.70
2019-03-02T00:17:02.445Z,11.83
2019-03-02T00:17:37.997Z,12.60
2019-03-02T00:18:13.679Z,12.27
2019-03-02T00:18:49.307Z,11.87
2019-03-02T00:19:24.881Z,11.90
2019-03-02T00:20:00.494Z,12.07
2019-03-02T00:20:36.371Z,12.60
2019-03-02T00:21:12.003Z,13.53
2019-03-02T00:21:47.910Z,12.70
2019-03-02T00:22:23.507Z,13.17
2019-03-02T00:22:59.085Z,13.13
2019-03-02T00:23:34.635Z,13.83
2019-03-02T00:24:10.263Z,13.73
2019-03-02T00:24:46.808Z,14.00
2019-03-02T00:25:22.639Z,13.60
2019-03-02T00:25:58.194Z,13.57
2019-03-02T00:26:33.742Z,18.17
2019-03-02T00:27:09.690Z,13.33
2019-03-02T00:27:45.249Z,14.03
2019-03-02T00:28:21.126Z,14.03
2019-03-02T00:28:57.043Z,13.37
2019-03-02T00:29:32.704Z,13.20
2019-03-02T00:30:08.906Z,14.10
2019-03-02T00:30:44.824Z,14.07
2019-03-02T00:31:20.448Z,15.60
2019-03-02T00:31:55.996Z,14.87
2019-03-02T00:32:31.579Z,14.87
2019-03-02T00:33:07.803Z,14.93
2019-03-02T00:33:43.687Z,14.33
2019-03-02T00:34:19.335Z,14.40
2019-03-02T00:34:54.891Z,15.70
2019-03-02T00:35:30.439Z,15.57
2019-03-02T00:36:05.990Z,14.97
2019-03-02T00:36:41.619Z,15.40
2019-03-02T00:37:17.645Z,15.27
2019-03-02T00:37:53.555Z,15.67
2019-03-02T00:38:29.106Z,16.23
2019-03-02T00:39:05.461Z,15.70
2019-03-02T00:39:41.293Z,16.40
2019-03-02T00:40:17.429Z,15.00
2019-03-02T00:40:53.683Z,16.10
2019-03-02T00:41:29.331Z,15.87
2019-03-02T00:42:05.507Z,17.40
2019-03-02T00:42:41.402Z,16.90
2019-03-02T00:43:16.959Z,15.93
2019-03-02T00:43:52.498Z,16.33
2019-03-02T00:44:28.319Z,17.10
2019-03-02T00:45:04.173Z,16.63
2019-03-02T00:45:39.747Z,16.47
2019-03-02T00:46:15.311Z,16.87
2019-03-02T00:46:51.974Z,17.47
2019-03-02T00:47:27.539Z,17.50
2019-03-02T00:48:03.086Z,17.63
2019-03-02T00:48:38.698Z,16.63
2019-03-02T00:49:14.273Z,16.97
2019-03-02T00:49:50.251Z,16.53
2019-03-02T00:50:26.114Z,17.57
2019-03-02T00:51:01.674Z,17.77
2019-03-02T00:51:37.302Z,16.47
2019-03-02T00:52:12.860Z,16.20
2019-03-02T00:52:49.166Z,17.17
2019-03-02T00:53:24.764Z,16.87
2019-03-02T00:54:00.930Z,18.30
2019-03-02T00:54:36.559Z,18.10
2019-03-02T00:55:12.099Z,17.73
2019-03-02T00:55:47.678Z,17.00
2019-03-02T00:56:23.235Z,16.17
2019-03-02T00:56:59.258Z,17.07
2019-03-02T00:57:35.390Z,17.40
2019-03-02T00:58:11.026Z,16.63
2019-03-02T00:58:47.254Z,17.17
2019-03-02T00:59:23.087Z,17.63
2019-03-02T00:59:58.650Z,16.20
2019-03-02T01:00:34.550Z,17.70
2019-03-02T01:01:10.410Z,17.53
2019-03-02T01:01:45.974Z,18.63
2019-03-02T01:02:21.584Z,17.60
2019-03-02T01:02:57.338Z,17.07
2019-03-02T01:03:32.888Z,17.37
2019-03-02T01:04:08.451Z,17.63
2019-03-02T01:04:44.328Z,18.07
2019-03-02T01:05:19.950Z,17.27
2019-03-02T01:05:55.708Z,16.53
2019-03-02T01:06:31.282Z,17.17
2019-03-02T01:07:06.866Z,17.73
2019-03-02T01:07:42.545Z,17.57
2019-03-02T01:08:18.163Z,18.10
2019-03-02T01:08:53.802Z,16.53
2019-03-02T01:09:29.699Z,17.10
2019-03-02T01:10:06.642Z,17.50
2019-03-02T01:10:42.499Z,18.23
2019-03-02T01:11:18.042Z,16.90
2019-03-02T01:11:53.607Z,17.03
2019-03-02T01:12:29.164Z,17.83
2019-03-02T01:13:05.138Z,18.33
2019-03-02T01:13:41.403Z,17.13
2019-03-02T01:14:16.967Z,17.23
2019-03-02T01:14:52.599Z,16.90
2019-03-02T01:15:28.149Z,18.57
2019-03-02T01:16:03.698Z,17.73
2019-03-02T01:16:39.330Z,18.40
2019-03-02T01:17:14.883Z,17.30
2019-03-02T01:17:50.456Z,17.87
2019-03-02T01:18:26.107Z,18.20
2019-03-02T01:19:02.023Z,17.90
2019-03-02T01:19:37.570Z,17.53
2019-03-02T01:20:14.342Z,17.60
2019-03-02T01:20:49.898Z,16.90
2019-03-02T01:21:25.467Z,17.00
2019-03-02T01:22:01.015Z,16.73
2019-03-02T01:22:36.577Z,16.57
2019-03-02T01:23:12.138Z,16.73
2019-03-02T01:23:47.717Z,16.13
2019-03-02T01:24:23.585Z,15.47
2019-03-02T01:24:59.195Z,15.20
2019-03-02T01:25:34.743Z,15.00
2019-03-02T01:26:10.294Z,16.17
2019-03-02T01:26:45.841Z,14.30
2019-03-02T01:27:21.467Z,14.10
2019-03-02T01:27:58.299Z,13.67
2019-03-02T01:28:33.849Z,14.23
2019-03-02T01:29:09.401Z,14.13
2019-03-02T01:29:45.308Z,13.30
2019-03-02T01:30:21.157Z,13.13
2019-03-02T01:30:56.714Z,13.00
2019-03-02T01:31:32.274Z,12.70
2019-03-02T01:32:07.831Z,13.03
2019-03-02T01:32:43.398Z,12.47
2019-03-02T01:33:20.364Z,12.37
2019-03-02T01:33:56.177Z,11.97
2019-03-02T01:34:31.806Z,12.07
2019-03-02T01:35:07.362Z,12.30
2019-03-02T01:35:43.414Z,11.67
2019-03-02T01:36:18.959Z,11.70
2019-03-02T01:36:54.638Z,12.40
2019-03-02T01:37:30.606Z,11.47
2019-03-02T01:38:06.153Z,11.97
2019-03-02T01:38:41.725Z,11.37
2019-03-02T01:39:17.270Z,11.60
2019-03-02T01:39:52.906Z,11.80
2019-03-02T01:40:28.558Z,11.33
2019-03-02T01:41:04.456Z,11.97
2019-03-02T01:41:39.991Z,12.57
2019-03-02T01:42:15.543Z,11.40
2019-03-02T01:42:51.103Z,11.07
2019-03-02T01:43:26.665Z,11.73
2019-03-02T01:44:02.227Z,10.93
2019-03-02T01:44:37.878Z,11.80
2019-03-02T01:45:14.978Z,12.30
2019-03-02T01:45:50.711Z,11.40
2019-03-02T01:46:26.299Z,11.10
2019-03-02T01:47:01.918Z,10.80
2019-03-02T01:47:38.544Z,12.00
2019-03-02T01:48:14.176Z,11.43
2019-03-02T01:48:50.092Z,11.40
2019-03-02T01:49:25.634Z,11.43
2019-03-02T01:50:01.228Z,11.30
2019-03-02T01:50:38.079Z,11.70
2019-03-02T01:51:13.645Z,11.60
2019-03-02T01:51:49.210Z,11.23
2019-03-02T01:52:24.770Z,11.00
2019-03-02T01:53:00.379Z,11.27
2019-03-02T01:53:36.000Z,11.57
2019-03-02T01:54:11.556Z,11.80
2019-03-02T01:54:47.188Z,11.70
2019-03-02T01:55:23.091Z,11.67
2019-03-02T01:55:58.658Z,11.87
2019-03-02T01:56:34.221Z,11.57
2019-03-02T01:57:09.770Z,11.23
2019-03-02T01:57:48.753Z,11.80
2019-03-02T01:58:24.631Z,12.43
2019-03-02T01:59:00.638Z,11.63
2019-03-02T01:59:38.751Z,12.10
2019-03-02T02:00:18.318Z,11.80
2019-03-02T02:00:53.886Z,12.10
2019-03-02T02:01:29.427Z,12.47
2019-03-02T02:02:05.010Z,12.80
2019-03-02T02:02:40.952Z,12.77
2019-03-02T02:03:16.502Z,14.00
2019-03-02T02:03:52.055Z,14.43
2019-03-02T02:04:29.207Z,14.80
2019-03-02T02:05:05.086Z,14.93
2019-03-02T02:05:40.716Z,15.40
2019-03-02T02:06:16.678Z,14.80
2019-03-02T02:06:52.329Z,14.43
2019-03-02T02:07:27.878Z,14.80
2019-03-02T02:08:03.435Z,16.63
2019-03-02T02:08:38.992Z,16.70
2019-03-02T02:09:14.908Z,16.60
2019-03-02T02:09:50.598Z,17.83
2019-03-02T02:10:26.154Z,17.40
2019-03-02T02:11:01.708Z,16.67
2019-03-02T02:11:37.398Z,18.07
2019-03-02T02:12:14.105Z,16.40
2019-03-02T02:12:49.930Z,16.87
2019-03-02T02:13:25.534Z,17.17
2019-03-02T02:14:01.408Z,16.80
2019-03-02T02:14:37.255Z,17.23
2019-03-02T02:15:15.141Z,17.70
2019-03-02T02:15:50.758Z,17.67
2019-03-02T02:16:26.328Z,17.77
2019-03-02T02:17:01.865Z,16.97
2019-03-02T02:17:37.674Z,18.10
2019-03-02T02:18:13.258Z,17.27
2019-03-02T02:18:48.816Z,17.37
2019-03-02T02:19:24.402Z,18.80
2019-03-02T02:19:59.975Z,19.07
2019-03-02T02:20:35.571Z,19.37
2019-03-02T02:21:11.130Z,18.10
2019-03-02T02:21:47.022Z,17.97
2019-03-02T02:22:22.574Z,17.53
2019-03-02T02:22:58.122Z,18.33
2019-03-02T02:23:34.403Z,18.80
2019-03-02T02:24:10.033Z,18.13
2019-03-02T02:24:45.608Z,17.67
2019-03-02T02:25:21.165Z,17.63
2019-03-02T02:25:56.694Z,17.90
2019-03-02T02:26:32.510Z,17.97
2019-03-02T02:27:08.327Z,17.33
2019-03-02T02:27:44.194Z,17.90
2019-03-02T02:28:19.750Z,17.23
2019-03-02T02:28:55.383Z,17.13
2019-03-02T02:29:30.922Z,18.00
2019-03-02T02:30:18.659Z,17.57
2019-03-02T02:30:53.414Z,17.33
2019-03-02T02:31:29.107Z,17.30
2019-03-02T02:32:04.650Z,17.97
2019-03-02T02:32:41.139Z,17.43
2019-03-02T02:33:16.687Z,17.93
2019-03-02T02:33:52.277Z,18.50
2019-03-02T02:34:28.151Z,18.40
2019-03-02T02:35:03.867Z,18.23
2019-03-02T02:35:40.223Z,18.17
2019-03-02T02:36:18.803Z,18.37
2019-03-02T02:36:58.215Z,18.67
2019-03-02T02:37:37.079Z,18.47
2019-03-02T02:38:11.268Z,18.90
2019-03-02T02:38:53.859Z,19.00
2019-03-02T02:39:24.383Z,18.63
2019-03-02T02:40:01.885Z,17.70
2019-03-02T02:40:39.595Z,19.30
2019-03-02T02:41:21.997Z,18.67
2019-03-02T02:41:52.769Z,18.40
2019-03-02T02:42:28.317Z,17.83
2019-03-02T02:43:04.184Z,17.47
2019-03-02T02:43:39.822Z,19.10
2019-03-02T02:44:15.375Z,18.07
2019-03-02T02:44:50.936Z,18.47
2019-03-02T02:45:26.534Z,18.40
2019-03-02T02:46:02.446Z,18.03
2019-03-02T02:46:38.011Z,18.40
2019-03-02T02:47:14.536Z,17.80
2019-03-02T02:47:52.097Z,17.90
2019-03-02T02:48:31.244Z,17.97
2019-03-02T02:49:05.601Z,18.30
2019-03-02T02:49:44.394Z,18.43
2019-03-02T02:50:28.271Z,17.87
2019-03-02T02:50:56.540Z,17.67
2019-03-02T02:51:32.171Z,17.90
2019-03-02T02:52:07.742Z,18.33
2019-03-02T02:52:43.291Z,18.93
2019-03-02T02:53:18.843Z,18.27
2019-03-02T02:53:54.728Z,17.27
2019-03-02T02:54:30.283Z,18.33
2019-03-02T02:55:06.105Z,17.57
2019-03-02T02:55:42.297Z,17.50
2019-03-02T02:56:19.600Z,17.83
2019-03-02T02:56:58.614Z,17.33
2019-03-02T02:57:33.614Z,18.03
2019-03-02T02:58:12.486Z,17.80
2019-03-02T02:58:55.632Z,17.23
2019-03-02T02:59:25.182Z,17.73
2019-03-02T03:00:00.735Z,17.47
2019-03-02T03:00:36.343Z,17.70
2019-03-02T03:01:11.898Z,18.37
2019-03-02T03:01:47.527Z,17.23
2019-03-02T03:02:23.069Z,18.13
2019-03-02T03:02:59.580Z,17.50
2019-03-02T03:03:35.146Z,17.93
2019-03-02T03:04:10.699Z,17.17
2019-03-02T03:04:46.801Z,17.83
2019-03-02T03:05:22.342Z,17.87
2019-03-02T03:05:57.906Z,18.10
2019-03-02T03:06:34.222Z,18.27
2019-03-02T03:07:12.459Z,18.33
2019-03-02T03:07:53.501Z,19.27
2019-03-02T03:08:44.657Z,18.07
2019-03-02T03:09:39.375Z,19.43
2019-03-02T03:10:34.172Z,18.03
2019-03-02T03:11:09.705Z,18.90
2019-03-02T03:11:45.734Z,18.70
2019-03-02T03:12:22.964Z,17.50
2019-03-02T03:13:02.059Z,18.47
2019-03-02T03:13:40.679Z,18.30
2019-03-02T03:14:14.957Z,19.20
2019-03-02T03:14:54.230Z,19.53
2019-03-02T03:15:37.126Z,18.93
2019-03-02T03:16:16.480Z,18.03
2019-03-02T03:16:54.025Z,19.17
2019-03-02T03:17:28.112Z,19.40
2019-03-02T03:18:07.266Z,19.30
2019-03-02T03:18:41.879Z,18.27
2019-03-02T03:19:17.420Z,19.57
2019-03-02T03:19:53.043Z,19.43
2019-03-02T03:20:28.582Z,19.37
2019-03-02T03:21:04.169Z,20.53
2019-03-02T03:21:40.068Z,19.93
2019-03-02T03:22:15.626Z,19.47
2019-03-02T03:22:51.434Z,20.70
2019-03-02T03:23:26.987Z,20.90
2019-03-02T03:24:03.827Z,20.50
2019-03-02T03:24:40.476Z,20.60
2019-03-02T03:25:18.046Z,20.77
2019-03-02T03:25:57.189Z,21.57
2019-03-02T03:26:35.197Z,21.07
2019-03-02T03:27:13.264Z,20.70
2019-03-02T03:27:51.406Z,21.33
2019-03-02T03:28:26.079Z,19.90
2019-03-02T03:29:05.206Z,19.93
2019-03-02T03:29:44.633Z,21.40
2019-03-02T03:30:17.011Z,20.87
2019-03-02T03:30:53.869Z,20.43
2019-03-02T03:31:31.655Z,21.73
2019-03-02T03:32:09.326Z,21.40
2019-03-02T03:32:54.180Z,21.50
2019-03-02T03:33:21.445Z,21.73
2019-03-02T03:33:57.278Z,21.87
2019-03-02T03:34:32.924Z,21.70
2019-03-02T03:35:16.668Z,20.73
2019-03-02T03:35:45.991Z,20.27
2019-03-02T03:36:21.573Z,20.80
2019-03-02T03:36:57.121Z,20.87
2019-03-02T03:37:34.760Z,22.40
2019-03-02T03:38:10.334Z,23.17
2019-03-02T03:38:45.874Z,21.90
2019-03-02T03:39:21.428Z,22.63
2019-03-02T03:39:57.608Z,21.83
2019-03-02T03:40:33.150Z,22.63
2019-03-02T03:41:08.728Z,22.20
2019-03-02T03:41:45.015Z,22.80
2019-03-02T03:42:23.055Z,22.43
2019-03-02T03:43:02.534Z,22.70
2019-03-02T03:43:41.535Z,22.67
2019-03-02T03:44:17.712Z,22.30
2019-03-02T03:44:50.510Z,22.07
2019-03-02T03:45:28.397Z,20.97
2019-03-02T03:46:03.328Z,22.53
2019-03-02T03:46:38.957Z,21.80
2019-03-02T03:47:14.517Z,22.57
2019-03-02T03:47:50.067Z,22.17
2019-03-02T03:48:25.642Z,21.63
2019-03-02T03:49:01.208Z,22.40
2019-03-02T03:49:36.752Z,23.03
2019-03-02T03:50:14.151Z,22.17
2019-03-02T03:50:52.354Z,22.03
2019-03-02T03:51:30.611Z,22.83
2019-03-02T03:52:09.311Z,22.03
2019-03-02T03:52:44.089Z,22.97
2019-03-02T03:53:21.873Z,22.60
2019-03-02T03:54:01.620Z,22.37
2019-03-02T03:54:35.547Z,23.53
2019-03-02T03:55:11.107Z,23.20
2019-03-02T03:55:46.662Z,22.73
2019-03-02T03:56:22.231Z,23.83
2019-03-02T03:56:57.807Z,22.60
2019-03-02T03:57:33.607Z,22.37
2019-03-02T03:58:09.163Z,22.87
2019-03-02T03:58:44.702Z,22.90
2019-03-02T03:59:20.680Z,23.93
2019-03-02T03:59:58.670Z,23.43
2019-03-02T04:00:38.277Z,23.03
2019-03-02T04:01:17.013Z,23.70
2019-03-02T04:01:52.256Z,22.33
2019-03-02T04:02:26.207Z,23.03
2019-03-02T04:03:02.189Z,23.10
2019-03-02T04:03:38.114Z,23.40
2019-03-02T04:04:13.646Z,21.87
2019-03-02T04:04:49.208Z,23.33
2019-03-02T04:05:24.746Z,23.10
2019-03-02T04:06:00.322Z,23.60
2019-03-02T04:06:35.880Z,23.27
2019-03-02T04:07:11.451Z,22.90
2019-03-02T04:07:49.644Z,22.53
2019-03-02T04:08:28.824Z,22.53
2019-03-02T04:09:03.123Z,23.30
2019-03-02T04:09:42.891Z,22.87
2019-03-02T04:10:24.521Z,23.10
2019-03-02T04:10:54.694Z,22.37
2019-03-02T04:11:30.576Z,23.03
2019-03-02T04:12:06.682Z,24.00
2019-03-02T04:12:42.471Z,23.67
2019-03-02T04:13:18.036Z,23.33
2019-03-02T04:13:53.953Z,23.53
2019-03-02T04:14:29.502Z,23.23
2019-03-02T04:15:05.064Z,23.97
2019-03-02T04:15:43.087Z,23.40
2019-03-02T04:16:20.550Z,21.83
2019-03-02T04:17:00.129Z,23.73
2019-03-02T04:17:39.186Z,23.13
2019-03-02T04:18:54.666Z,23.20
2019-03-02T04:19:34.100Z,23.30
2019-03-02T04:20:12.475Z,24.30
2019-03-02T04:20:49.687Z,23.13
2019-03-02T04:21:31.940Z,23.63
2019-03-02T04:22:09.494Z,23.60
2019-03-02T04:22:46.046Z,23.40
2019-03-02T04:23:22.350Z,22.77
2019-03-02T04:24:01.215Z,21.93
2019-03-02T04:24:39.814Z,22.30
2019-03-02T04:25:18.019Z,23.70
2019-03-02T04:25:52.041Z,23.30
2019-03-02T04:26:31.359Z,22.87
2019-03-02T04:27:05.478Z,24.43
2019-03-02T04:27:41.032Z,22.23
2019-03-02T04:28:16.592Z,22.80
2019-03-02T04:28:52.438Z,22.53
2019-03-02T04:29:27.979Z,23.37
2019-03-02T04:30:03.535Z,24.27
2019-03-02T04:30:39.422Z,23.67
2019-03-02T04:31:14.963Z,22.73
2019-03-02T04:31:51.041Z,21.13
2019-03-02T04:32:27.811Z,22.60
2019-03-02T04:33:05.995Z,22.00
2019-03-02T04:33:43.248Z,21.77
2019-03-02T04:34:21.163Z,21.93
2019-03-02T04:34:57.693Z,22.33
2019-03-02T04:35:33.729Z,22.00
2019-03-02T04:36:11.170Z,20.20
2019-03-02T04:36:47.622Z,22.53
2019-03-02T04:37:24.923Z,21.70
2019-03-02T04:38:02.243Z,22.10
2019-03-02T04:38:38.981Z,22.13
2019-03-02T04:39:15.010Z,21.17
2019-03-02T04:39:51.125Z,21.03
2019-03-02T04:40:29.094Z,20.97
2019-03-02T04:41:04.849Z,21.47
2019-03-02T04:41:40.845Z,21.67
2019-03-02T04:42:16.682Z,21.10
2019-03-02T04:42:52.535Z,21.13
2019-03-02T04:43:28.087Z,21.77
2019-03-02T04:44:03.619Z,20.60
2019-03-02T04:44:39.226Z,21.63
2019-03-02T04:45:15.459Z,20.37
2019-03-02T04:45:51.517Z,20.53
2019-03-02T04:46:27.079Z,21.87
2019-03-02T04:47:02.610Z,21.33
2019-03-02T04:47:38.170Z,20.33
2019-03-02T04:48:13.734Z,22.40
2019-03-02T04:48:49.291Z,21.10
2019-03-02T04:49:25.118Z,21.67
2019-03-02T04:50:00.948Z,22.00
2019-03-02T04:50:37.046Z,21.70
2019-03-02T04:51:12.667Z,20.40
2019-03-02T04:51:48.611Z,21.23
2019-03-02T04:52:24.431Z,22.37
2019-03-02T04:52:59.979Z,21.67
2019-03-02T04:53:36.794Z,22.10
2019-03-02T04:54:12.343Z,21.17
2019-03-02T04:54:47.888Z,21.90
2019-03-02T04:55:23.434Z,22.20
2019-03-02T04:55:59.234Z,23.67
2019-03-02T04:56:34.778Z,22.73
2019-03-02T04:57:11.550Z,22.67
2019-03-02T04:57:47.347Z,22.20
2019-03-02T04:58:23.167Z,21.70
2019-03-02T04:58:58.718Z,21.97
2019-03-02T04:59:34.272Z,22.27
2019-03-02T05:00:12.263Z,22.43
2019-03-02T05:00:47.807Z,23.13
2019-03-02T05:01:23.350Z,24.03
2019-03-02T05:01:59.971Z,22.37
2019-03-02T05:02:35.674Z,22.93
2019-03-02T05:03:11.206Z,22.70
2019-03-02T05:03:47.123Z,24.83
2019-03-02T05:04:22.685Z,24.83
2019-03-02T05:04:58.250Z,24.77
2019-03-02T05:05:33.803Z,24.50
2019-03-02T05:06:10.610Z,25.90
2019-03-02T05:06:46.145Z,26.70
2019-03-02T05:07:21.681Z,25.50
2019-03-02T05:07:57.235Z,25.23
2019-03-02T05:08:32.794Z,26.50
2019-03-02T05:09:08.622Z,25.27
2019-03-02T05:09:44.201Z,25.43
2019-03-02T05:10:20.042Z,24.80
2019-03-02T05:10:55.590Z,25.03
2019-03-02T05:11:31.143Z,27.43
2019-03-02T05:12:07.250Z,26.53
2019-03-02T05:12:43.077Z,27.43
2019-03-02T05:13:19.167Z,26.77
2019-03-02T05:13:54.706Z,26.30
2019-03-02T05:14:30.270Z,26.30
2019-03-02T05:15:07.612Z,30.97
2019-03-02T05:15:43.159Z,28.60
2019-03-02T05:16:18.784Z,27.03
2019-03-02T05:16:54.348Z,27.57
2019-03-02T05:17:30.611Z,27.60
2019-03-02T05:18:06.183Z,27.37
2019-03-02T05:18:41.728Z,31.53
2019-03-02T05:19:17.278Z,29.13
2019-03-02T05:19:52.847Z,30.10
2019-03-02T05:20:28.403Z,30.27
2019-03-02T05:21:03.957Z,29.83
2019-03-02T05:21:39.826Z,30.73
2019-03-02T05:22:18.758Z,30.73
2019-03-02T05:22:55.990Z,30.90
2019-03-02T05:23:31.707Z,30.80
2019-03-02T05:24:09.145Z,30.00
2019-03-02T05:24:45.459Z,29.10
2019-03-02T05:25:21.007Z,32.00
2019-03-02T05:25:56.558Z,29.93
2019-03-02T05:26:32.547Z,28.93
2019-03-02T05:27:08.095Z,29.73
2019-03-02T05:27:43.754Z,29.40
2019-03-02T05:28:19.318Z,30.13
2019-03-02T05:28:55.290Z,29.13
2019-03-02T05:29:31.267Z,29.30
2019-03-02T05:30:07.655Z,31.70
2019-03-02T05:30:43.508Z,31.87
2019-03-02T05:31:19.370Z,32.13
2019-03-02T05:31:54.934Z,34.60
2019-03-02T05:32:30.551Z,33.30
2019-03-02T05:33:06.102Z,34.60
2019-03-02T05:33:42.673Z,32.77
2019-03-02T05:34:18.218Z,33.23
2019-03-02T05:34:53.855Z,33.90
2019-03-02T05:35:29.454Z,34.87
2019-03-02T05:36:05.362Z,32.80
2019-03-02T05:36:40.981Z,33.17
2019-03-02T05:37:17.309Z,35.83
2019-03-02T05:37:52.920Z,36.13
2019-03-02T05:38:28.755Z,36.73
2019-03-02T05:39:05.822Z,36.43
2019-03-02T05:39:41.543Z,36.33
2019-03-02T05:40:17.095Z,35.80
2019-03-02T05:40:52.690Z,36.47
2019-03-02T05:41:28.247Z,36.97
2019-03-02T05:42:03.797Z,37.53
2019-03-02T05:42:39.343Z,37.77
2019-03-02T05:43:15.261Z,37.97
2019-03-02T05:43:50.815Z,37.70
2019-03-02T05:44:26.635Z,38.10
2019-03-02T05:45:02.220Z,37.47
2019-03-02T05:45:38.743Z,38.73
2019-03-02T05:46:14.554Z,38.17
2019-03-02T05:46:50.098Z,41.57
2019-03-02T05:47:26.027Z,37.10
2019-03-02T05:48:04.877Z,39.23
2019-03-02T05:48:42.497Z,38.67
2019-03-02T05:49:18.583Z,39.20
2019-03-02T05:49:54.709Z,38.97
2019-03-02T05:50:31.620Z,39.00
2019-03-02T05:51:07.761Z,37.80
2019-03-02T05:51:44.069Z,40.90
2019-03-02T05:52:20.905Z,37.57
2019-03-02T05:52:56.450Z,39.50
2019-03-02T05:53:32.035Z,38.00
2019-03-02T05:54:07.669Z,38.20
2019-03-02T05:54:43.221Z,40.37
2019-03-02T05:55:19.739Z,46.30
2019-03-02T05:55:55.309Z,44.07
2019-03-02T05:56:31.127Z,42.10
2019-03-02T05:57:06.917Z,40.47
2019-03-02T05:57:45.355Z,44.17
2019-03-02T05:58:20.900Z,46.80
2019-03-02T05:58:56.731Z,41.17
2019-03-02T05:59:32.275Z,43.57
2019-03-02T06:00:09.431Z,42.07
2019-03-02T06:00:45.023Z,44.43
2019-03-02T06:01:20.830Z,41.43
2019-03-02T06:01:56.376Z,43.40
2019-03-02T06:02:31.915Z,40.27
2019-03-02T06:03:07.795Z,42.37
2019-03-02T06:03:46.017Z,42.83
2019-03-02T06:04:22.090Z,44.33
2019-03-02T06:04:58.074Z,41.57
2019-03-02T06:05:34.188Z,44.50
2019-03-02T06:06:09.755Z,49.30
2019-03-02T06:06:45.307Z,46.20
2019-03-02T06:07:20.854Z,44.47
2019-03-02T06:07:57.587Z,52.07
2019-03-02T06:08:35.586Z,45.50
2019-03-02T06:09:13.758Z,47.33
2019-03-02T06:09:50.190Z,45.33
2019-03-02T06:10:26.373Z,45.33
2019-03-02T06:11:03.358Z,46.03
2019-03-02T06:11:40.371Z,44.07
2019-03-02T06:12:16.424Z,44.27
2019-03-02T06:12:53.033Z,47.80
2019-03-02T06:13:29.765Z,47.50
2019-03-02T06:14:05.424Z,51.50
2019-03-02T06:14:40.959Z,49.63
2019-03-02T06:15:16.762Z,50.53
2019-03-02T06:15:52.376Z,52.37
2019-03-02T06:16:27.923Z,49.73
2019-03-02T06:17:03.465Z,48.57
2019-03-02T06:17:39.254Z,49.13
2019-03-02T06:18:14.812Z,48.23
2019-03-02T06:18:50.350Z,49.53
2019-03-02T06:19:25.898Z,47.33
2019-03-02T06:20:01.463Z,49.53
2019-03-02T06:20:37.020Z,46.23
2019-03-02T06:21:12.603Z,50.50
2019-03-02T06:21:48.410Z,47.50
2019-03-02T06:22:24.235Z,46.97
2019-03-02T06:22:59.791Z,50.10
2019-03-02T06:23:36.315Z,48.60
2019-03-02T06:24:11.871Z,52.03
2019-03-02T06:24:47.422Z,49.57
2019-03-02T06:25:23.300Z,52.33
2019-03-02T06:25:59.126Z,53.57
2019-03-02T06:26:36.699Z,56.50
2019-03-02T06:27:13.331Z,53.93
2019-03-02T06:27:48.871Z,53.93
2019-03-02T06:28:24.410Z,50.73
2019-03-02T06:28:59.959Z,49.10
2019-03-02T06:29:35.843Z,52.23
2019-03-02T06:30:11.671Z,51.60
2019-03-02T06:30:47.375Z,52.80
2019-03-02T06:31:22.921Z,58.67
2019-03-02T06:31:58.478Z,53.97
2019-03-02T06:32:34.028Z,54.33
2019-03-02T06:33:09.569Z,52.93
2019-03-02T06:33:45.630Z,51.67
2019-03-02T06:34:21.261Z,53.50
2019-03-02T06:34:57.071Z,54.33
2019-03-02T06:35:32.979Z,52.53
2019-03-02T06:36:10.182Z,59.47
2019-03-02T06:36:46.033Z,54.00
2019-03-02T06:37:21.810Z,49.53
2019-03-02T06:37:57.398Z,55.80
2019-03-02T06:38:33.464Z,69.13
2019-03-02T06:39:09.150Z,61.60
2019-03-02T06:39:45.211Z,57.60
2019-03-02T06:40:23.491Z,56.90
2019-03-02T06:40:58.931Z,60.27
2019-03-02T06:41:34.925Z,55.23
2019-03-02T06:42:11.181Z,61.60
2019-03-02T06:42:46.847Z,59.13
2019-03-02T06:43:22.826Z,55.60
2019-03-02T06:43:59.160Z,57.97
2019-03-02T06:44:36.394Z,56.87
2019-03-02T06:45:12.054Z,54.03
2019-03-02T06:45:47.947Z,65.47
2019-03-02T06:46:23.784Z,66.40
2019-03-02T06:46:59.359Z,69.47
2019-03-02T06:47:35.016Z,63.93
2019-03-02T06:48:10.958Z,64.87
2019-03-02T06:48:47.078Z,62.47
2019-03-02T06:49:22.886Z,65.60
2019-03-02T06:49:59.344Z,58.20
2019-03-02T06:50:36.792Z,62.73
2019-03-02T06:51:12.576Z,66.17
2019-03-02T06:51:49.603Z,68.30
2019-03-02T06:52:26.199Z,59.10
2019-03-02T06:53:02.500Z,68.17
2019-03-02T06:53:39.406Z,71.97
2019-03-02T06:54:15.242Z,64.37
2019-03-02T06:54:50.835Z,61.30
2019-03-02T06:55:26.391Z,60.23
2019-03-02T06:56:02.038Z,63.63
2019-03-02T06:56:39.489Z,67.83
2019-03-02T06:57:15.511Z,64.47
2019-03-02T06:57:51.622Z,66.00
2019-03-02T06:58:29.388Z,65.23
2019-03-02T06:59:05.009Z,65.60
2019-03-02T06:59:40.673Z,59.87
2019-03-02T07:00:18.323Z,64.40
2019-03-02T07:00:54.125Z,58.23
2019-03-02T07:01:29.975Z,59.37
2019-03-02T07:02:05.567Z,59.63
2019-03-02T07:02:41.129Z,55.00
2019-03-02T07:03:16.949Z,63.50
2019-03-02T07:03:52.542Z,64.07
2019-03-02T07:04:28.102Z,61.80
2019-03-02T07:05:03.827Z,59.73
2019-03-02T07:05:39.380Z,63.40
2019-03-02T07:06:15.195Z,63.07
2019-03-02T07:06:50.881Z,57.27
2019-03-02T07:07:26.462Z,58.70
2019-03-02T07:08:02.018Z,65.53
2019-03-02T07:08:37.611Z,63.53
2019-03-02T07:09:13.618Z,64.80
2019-03-02T07:09:49.180Z,66.50
2019-03-02T07:10:24.740Z,57.70
2019-03-02T07:11:00.278Z,63.03
2019-03-02T07:11:35.835Z,63.07
2019-03-02T07:12:11.766Z,62.53
2019-03-02T07:12:47.334Z,59.33
2019-03-02T07:13:23.116Z,56.47
2019-03-02T07:13:58.994Z,63.20
2019-03-02T07:14:34.583Z,59.07
2019-03-02T07:15:13.230Z,64.10
2019-03-02T07:15:48.399Z,63.10
2019-03-02T07:16:23.964Z,58.60
2019-03-02T07:16:59.503Z,61.60
2019-03-02T07:17:56.730Z,60.80
2019-03-02T07:18:46.306Z,65.10
2019-03-02T07:19:24.488Z,62.80
2019-03-02T07:20:08.759Z,64.67
2019-03-02T07:20:44.749Z,61.93
2019-03-02T07:21:20.501Z,65.27
2019-03-02T07:21:57.569Z,64.63
2019-03-02T07:22:33.398Z,60.20
2019-03-02T07:23:08.970Z,61.97
2019-03-02T07:23:44.770Z,64.00
2019-03-02T07:24:20.491Z,64.10
2019-03-02T07:24:56.437Z,66.27
2019-03-02T07:25:31.989Z,64.27
2019-03-02T07:26:07.912Z,58.00
2019-03-02T07:26:43.476Z,63.17
2019-03-02T07:27:19.026Z,65.43
2019-03-02T07:27:54.627Z,58.17
2019-03-02T07:28:30.442Z,57.53
2019-03-02T07:29:06.012Z,58.57
2019-03-02T07:29:41.560Z,61.58
2019-03-02T07:30:17.107Z,54.60
2019-03-02T07:30:52.634Z,61.73
2019-03-02T07:31:28.183Z,60.20
2019-03-02T07:32:03.767Z,60.23
2019-03-02T07:32:39.327Z,57.40
2019-03-02T07:33:15.213Z,56.07
2019-03-02T07:33:50.800Z,55.40
2019-03-02T07:34:26.342Z,56.90
2019-03-02T07:35:02.263Z,61.27
2019-03-02T07:35:38.064Z,56.40
2019-03-02T07:36:13.602Z,55.87
2019-03-02T07:36:49.147Z,53.33
2019-03-02T07:37:24.962Z,55.77
2019-03-02T07:38:00.540Z,57.97
2019-03-02T07:38:36.141Z,55.43
2019-03-02T07:39:11.876Z,57.00
2019-03-02T07:39:47.678Z,56.50
2019-03-02T07:40:23.649Z,54.87
2019-03-02T07:40:59.303Z,56.60
2019-03-02T07:41:36.159Z,57.00
2019-03-02T07:42:11.795Z,57.00
2019-03-02T07:42:47.366Z,52.53
2019-03-02T07:43:22.938Z,58.80
2019-03-02T07:43:59.784Z,53.67
2019-03-02T07:44:36.136Z,57.23
2019-03-02T07:45:13.523Z,54.83
2019-03-02T07:45:49.488Z,58.10
2019-03-02T07:46:25.113Z,55.20
2019-03-02T07:47:01.304Z,52.50